createdAt,value
2018-12-03T00:00:14.344Z,13.30
2018-12-03T00:02:42.480Z,13.20
2018-12-03T00:05:10.624Z,13.30
2018-12-03T00:07:38.771Z,13.30
2018-12-03T00:10:08.153Z,13.30
2018-12-03T00:12:36.299Z,13.30
2018-12-03T00:15:05.254Z,13.30
2018-12-03T00:17:33.368Z,13.30
2018-12-03T00:20:01.534Z,13.30
2018-12-03T00:22:29.666Z,13.30
2018-12-03T00:24:57.807Z,13.30
2018-12-03T00:27:25.956Z,13.20
2018-12-03T00:29:54.103Z,13.20
2018-12-03T00:32:22.251Z,13.20
2018-12-03T00:34:50.404Z,13.20
2018-12-03T00:37:18.551Z,13.20
2018-12-03T00:39:46.704Z,13.20
2018-12-03T00:42:14.853Z,13.20
2018-12-03T00:44:43.025Z,13.20
2018-12-03T00:47:11.168Z,13.20
2018-12-03T00:49:39.290Z,13.20
2018-12-03T00:52:07.389Z,13.20
2018-12-03T00:54:35.496Z,13.20
2018-12-03T00:57:03.602Z,13.20
2018-12-03T00:59:31.699Z,13.20
2018-12-03T01:01:59.801Z,13.20
2018-12-03T01:04:27.913Z,13.20
2018-12-03T01:06:56.007Z,13.20
2018-12-03T01:09:24.124Z,13.30
2018-12-03T01:11:52.220Z,13.30
2018-12-03T01:14:20.321Z,13.30
2018-12-03T01:16:48.432Z,13.30
2018-12-03T01:19:16.533Z,13.30
2018-12-03T01:21:44.635Z,13.30
2018-12-03T01:24:12.731Z,13.30
2018-12-03T01:26:40.853Z,13.20
2018-12-03T01:29:08.953Z,13.20
2018-12-03T01:31:37.065Z,13.20
2018-12-03T01:34:05.412Z,13.30
2018-12-03T01:36:33.525Z,13.30
2018-12-03T01:39:01.624Z,13.30
2018-12-03T01:41:29.724Z,13.30
2018-12-03T01:43:57.820Z,13.30
2018-12-03T01:46:25.932Z,13.30
2018-12-03T01:48:54.085Z,13.20
2018-12-03T01:51:22.268Z,13.30
2018-12-03T01:53:50.417Z,13.30
2018-12-03T01:56:18.586Z,13.30
2018-12-03T01:58:46.729Z,13.30
2018-12-03T02:01:14.877Z,13.30
2018-12-03T02:03:43.021Z,13.30
2018-12-03T02:06:11.169Z,13.30
2018-12-03T02:08:39.309Z,13.30
2018-12-03T02:11:07.472Z,13.30
2018-12-03T02:13:35.608Z,13.30
2018-12-03T02:16:03.756Z,13.30
2018-12-03T02:18:31.901Z,13.30
2018-12-03T02:21:00.048Z,13.30
2018-12-03T02:23:28.200Z,13.30
2018-12-03T02:25:56.356Z,13.40
2018-12-03T02:28:24.498Z,13.30
2018-12-03T02:30:52.639Z,13.30
2018-12-03T02:33:20.795Z,13.40
2018-12-03T02:35:48.937Z,13.40
2018-12-03T02:38:17.077Z,13.40
2018-12-03T02:40:45.224Z,13.40
2018-12-03T02:43:13.368Z,13.40
2018-12-03T02:45:41.512Z,13.30
2018-12-03T02:48:09.617Z,13.30
2018-12-03T02:50:37.729Z,13.30
2018-12-03T02:53:06.449Z,13.30
2018-12-03T02:55:34.531Z,13.30
2018-12-03T02:58:02.653Z,13.40
2018-12-03T03:00:30.744Z,13.40
2018-12-03T03:02:58.844Z,13.40
2018-12-03T03:05:26.937Z,13.40
2018-12-03T03:07:55.048Z,13.30
2018-12-03T03:10:23.150Z,13.40
2018-12-03T03:12:51.270Z,13.40
2018-12-03T03:15:19.363Z,13.40
2018-12-03T03:17:47.472Z,13.40
2018-12-03T03:20:15.564Z,13.40
2018-12-03T03:22:43.669Z,13.40
2018-12-03T03:25:11.864Z,13.40
2018-12-03T03:27:39.974Z,13.40
2018-12-03T03:30:10.925Z,13.30
2018-12-03T03:32:39.069Z,13.30
2018-12-03T03:35:08.405Z,13.30
2018-12-03T03:37:36.518Z,13.30
2018-12-03T03:40:06.088Z,13.30
2018-12-03T03:42:34.208Z,13.20
2018-12-03T03:45:02.309Z,13.20
2018-12-03T03:47:30.412Z,13.20
2018-12-03T03:49:58.565Z,13.20
2018-12-03T03:52:26.711Z,13.20
2018-12-03T03:54:54.851Z,13.20
2018-12-03T03:57:23.010Z,13.20
2018-12-03T03:59:51.144Z,13.20
2018-12-03T04:02:19.296Z,13.20
2018-12-03T04:04:47.440Z,13.20
2018-12-03T04:07:15.587Z,13.20
2018-12-03T04:09:43.733Z,13.20
2018-12-03T04:12:11.893Z,13.10
2018-12-03T04:14:40.038Z,13.10
2018-12-03T04:17:08.184Z,13.10
2018-12-03T04:19:36.327Z,13.10
2018-12-03T04:22:04.498Z,13.00
2018-12-03T04:24:32.676Z,12.90
2018-12-03T04:27:00.820Z,13.00
2018-12-03T04:29:28.966Z,12.90
2018-12-03T04:31:57.156Z,12.90
2018-12-03T04:34:25.288Z,12.90
2018-12-03T04:36:53.437Z,13.00
2018-12-03T04:39:21.580Z,13.00
2018-12-03T04:41:49.741Z,13.00
2018-12-03T04:44:17.867Z,12.90
2018-12-03T04:46:46.004Z,13.00
2018-12-03T04:49:14.159Z,13.00
2018-12-03T04:51:42.296Z,13.00
2018-12-03T04:54:10.447Z,13.00
2018-12-03T04:56:38.584Z,13.00
2018-12-03T04:59:06.731Z,13.00
2018-12-03T05:01:34.869Z,13.00
2018-12-03T05:04:03.020Z,13.00
2018-12-03T05:06:31.168Z,13.00
2018-12-03T05:08:59.334Z,13.00
2018-12-03T05:11:27.474Z,13.00
2018-12-03T05:13:55.693Z,13.00
2018-12-03T05:16:23.844Z,13.00
2018-12-03T05:18:51.997Z,13.00
2018-12-03T05:21:20.141Z,13.00
2018-12-03T05:23:48.287Z,12.90
2018-12-03T05:26:16.420Z,13.00
2018-12-03T05:28:44.563Z,13.00
2018-12-03T05:31:12.718Z,13.00
2018-12-03T05:33:40.860Z,13.00
2018-12-03T05:36:08.996Z,13.00
2018-12-03T05:38:37.159Z,13.00
2018-12-03T05:41:05.596Z,13.00
2018-12-03T05:43:33.741Z,13.00
2018-12-03T05:46:01.886Z,12.90
2018-12-03T05:48:30.007Z,13.00
2018-12-03T05:50:58.095Z,13.00
2018-12-03T05:53:26.224Z,13.00
2018-12-03T05:55:54.320Z,13.00
2018-12-03T05:58:22.420Z,13.00
2018-12-03T06:00:50.521Z,13.00
2018-12-03T06:03:18.621Z,12.90
2018-12-03T06:05:46.715Z,12.80
2018-12-03T06:08:14.864Z,12.80
2018-12-03T06:10:43.013Z,12.90
2018-12-03T06:13:11.164Z,12.80
2018-12-03T06:15:39.312Z,12.80
2018-12-03T06:18:07.457Z,12.80
2018-12-03T06:20:35.642Z,12.80
2018-12-03T06:23:03.788Z,12.80
2018-12-03T06:25:31.931Z,12.80
2018-12-03T06:28:00.129Z,12.90
2018-12-03T06:30:28.568Z,12.90
2018-12-03T06:32:56.730Z,12.90
2018-12-03T06:35:24.861Z,12.80
2018-12-03T06:37:52.992Z,12.80
2018-12-03T06:40:26.385Z,12.70
2018-12-03T06:42:54.524Z,12.70
2018-12-03T06:45:23.440Z,12.70
2018-12-03T06:47:56.715Z,12.70
2018-12-03T06:50:24.886Z,12.70
2018-12-03T06:52:52.972Z,12.70
2018-12-03T06:55:21.096Z,12.80
2018-12-03T06:57:49.188Z,12.70
2018-12-03T07:00:19.447Z,12.70
2018-12-03T07:02:47.550Z,12.70
2018-12-03T07:05:15.656Z,12.70
2018-12-03T07:07:44.899Z,12.70
2018-12-03T07:10:15.339Z,12.70
2018-12-03T07:12:44.020Z,12.70
2018-12-03T07:15:14.967Z,12.70
2018-12-03T07:17:43.076Z,12.70
2018-12-03T07:20:12.404Z,12.60
2018-12-03T07:22:40.801Z,12.60
2018-12-03T07:25:09.928Z,12.60
2018-12-03T07:27:38.077Z,12.60
2018-12-03T07:30:14.520Z,12.60
2018-12-03T07:32:42.740Z,12.60
2018-12-03T07:35:10.843Z,12.50
2018-12-03T07:37:38.931Z,12.50
2018-12-03T07:40:08.850Z,12.50
2018-12-03T07:42:36.994Z,12.50
2018-12-03T07:45:10.309Z,12.50
2018-12-03T07:47:38.409Z,12.40
2018-12-03T07:50:08.690Z,12.40
2018-12-03T07:52:36.825Z,12.40
2018-12-03T07:55:07.804Z,12.40
2018-12-03T07:57:35.900Z,12.40
2018-12-03T08:00:04.585Z,12.40
2018-12-03T08:02:32.680Z,12.50
2018-12-03T08:05:00.781Z,12.50
2018-12-03T08:07:28.872Z,12.50
2018-12-03T08:09:56.984Z,12.50
2018-12-03T08:12:25.079Z,12.50
2018-12-03T08:14:53.184Z,12.50
2018-12-03T08:17:21.284Z,12.40
2018-12-03T08:19:49.384Z,12.40
2018-12-03T08:22:17.481Z,12.40
2018-12-03T08:24:45.584Z,12.40
2018-12-03T08:27:13.703Z,12.40
2018-12-03T08:29:41.799Z,12.40
2018-12-03T08:32:09.895Z,12.40
2018-12-03T08:34:38.008Z,12.40
2018-12-03T08:37:06.138Z,12.50
2018-12-03T08:39:34.233Z,12.50
2018-12-03T08:42:02.368Z,12.50
2018-12-03T08:44:30.695Z,12.50
2018-12-03T08:47:04.912Z,12.60
2018-12-03T08:49:33.004Z,12.50
2018-12-03T08:52:01.117Z,12.60
2018-12-03T08:54:29.212Z,12.60
2018-12-03T08:56:57.345Z,12.60
2018-12-03T08:59:25.444Z,12.60
2018-12-03T09:01:53.550Z,12.60
2018-12-03T09:04:21.652Z,12.60
2018-12-03T09:06:49.752Z,12.60
2018-12-03T09:09:18.352Z,12.70
2018-12-03T09:11:48.999Z,12.80
2018-12-03T09:14:18.194Z,12.80
2018-12-03T09:16:46.296Z,12.80
2018-12-03T09:19:14.392Z,12.90
2018-12-03T09:21:42.500Z,13.00
2018-12-03T09:24:10.597Z,13.00
2018-12-03T09:26:40.222Z,13.10
2018-12-03T09:29:08.312Z,13.10
2018-12-03T09:31:36.419Z,13.10
2018-12-03T09:34:04.524Z,13.10
2018-12-03T09:36:32.629Z,13.10
2018-12-03T09:39:10.308Z,13.10
2018-12-03T09:41:38.681Z,13.10
2018-12-03T09:44:07.583Z,13.00
2018-12-03T09:46:35.692Z,13.10
2018-12-03T09:49:03.788Z,13.10
2018-12-03T09:51:33.968Z,13.10
2018-12-03T09:54:03.552Z,13.20
2018-12-03T09:56:37.264Z,13.20
2018-12-03T09:59:13.312Z,13.20
2018-12-03T10:01:41.811Z,13.30
2018-12-03T10:04:13.496Z,13.30
2018-12-03T10:06:41.588Z,13.30
2018-12-03T10:09:11.251Z,13.30
2018-12-03T10:11:39.392Z,13.30
2018-12-03T10:14:07.680Z,13.40
2018-12-03T10:16:38.058Z,13.40
2018-12-03T10:19:06.188Z,13.50
2018-12-03T10:21:34.336Z,13.50
2018-12-03T10:24:27.548Z,13.60
2018-12-03T10:26:55.103Z,13.60
2018-12-03T10:29:22.572Z,13.70
2018-12-03T10:31:50.036Z,13.70
2018-12-03T10:34:17.619Z,13.70
2018-12-03T10:36:46.724Z,13.70
2018-12-03T10:39:14.745Z,13.60
2018-12-03T10:41:42.256Z,13.60
2018-12-03T10:44:09.732Z,13.60
2018-12-03T10:46:37.280Z,13.60
2018-12-03T10:49:05.457Z,13.60
2018-12-03T10:51:32.921Z,13.60
2018-12-03T10:54:00.354Z,13.60
2018-12-03T10:56:27.840Z,13.60
2018-12-03T10:58:55.417Z,13.60
2018-12-03T11:01:23.827Z,13.50
2018-12-03T11:03:57.095Z,13.50
2018-12-03T11:06:24.928Z,13.50
2018-12-03T11:08:52.625Z,13.40
2018-12-03T11:11:20.287Z,13.30
2018-12-03T11:13:47.859Z,13.30
2018-12-03T11:16:19.104Z,13.30
2018-12-03T11:18:47.188Z,13.40
2018-12-03T11:21:14.648Z,13.40
2018-12-03T11:23:42.439Z,13.50
2018-12-03T11:26:09.905Z,13.50
2018-12-03T11:28:37.433Z,13.50
2018-12-03T11:31:06.189Z,13.50
2018-12-03T11:33:33.689Z,13.60
2018-12-03T11:36:01.281Z,13.50
2018-12-03T11:38:28.809Z,13.50
2018-12-03T11:40:56.376Z,13.60
2018-12-03T11:43:23.952Z,13.50
2018-12-03T11:45:51.500Z,13.50
2018-12-03T11:48:19.062Z,13.40
2018-12-03T11:50:46.631Z,13.40
2018-12-03T11:53:14.191Z,13.40
2018-12-03T11:55:41.654Z,13.50
2018-12-03T11:58:09.213Z,13.50
2018-12-03T12:00:36.699Z,13.50
2018-12-03T12:03:04.447Z,13.50
2018-12-03T12:05:32.035Z,13.50
2018-12-03T12:07:59.497Z,13.50
2018-12-03T12:10:26.937Z,13.50
2018-12-03T12:12:54.396Z,13.50
2018-12-03T12:15:21.869Z,13.60
2018-12-03T12:17:49.420Z,13.60
2018-12-03T12:20:16.897Z,13.60
2018-12-03T12:22:44.360Z,13.50
2018-12-03T12:25:11.908Z,13.50
2018-12-03T12:27:39.473Z,13.50
2018-12-03T12:30:08.469Z,13.60
2018-12-03T12:32:35.937Z,13.50
2018-12-03T12:35:03.633Z,13.50
2018-12-03T12:37:31.069Z,13.50
2018-12-03T12:39:58.526Z,13.50
2018-12-03T12:42:31.580Z,13.50
2018-12-03T12:44:55.492Z,13.50
2018-12-03T12:47:22.948Z,13.50
2018-12-03T12:49:50.517Z,13.50
2018-12-03T12:52:18.080Z,13.50
2018-12-03T12:54:45.541Z,13.50
2018-12-03T12:57:12.999Z,13.50
2018-12-03T12:59:40.456Z,13.50
2018-12-03T13:02:08.028Z,13.50
2018-12-03T13:04:35.589Z,13.50
2018-12-03T13:07:03.053Z,13.50
2018-12-03T13:09:30.508Z,13.40
2018-12-03T13:11:57.970Z,13.40
2018-12-03T13:14:25.554Z,13.40
2018-12-03T13:16:53.104Z,13.30
2018-12-03T13:19:20.565Z,13.30
2018-12-03T13:21:48.128Z,13.20
2018-12-03T13:24:15.565Z,13.10
2018-12-03T13:26:43.057Z,13.10
2018-12-03T13:29:10.617Z,13.10
2018-12-03T13:31:38.072Z,13.00
2018-12-03T13:34:05.641Z,13.10
2018-12-03T13:36:33.196Z,13.00
2018-12-03T13:39:00.668Z,13.00
2018-12-03T13:41:28.121Z,12.90
2018-12-03T13:43:55.589Z,12.90
2018-12-03T13:46:23.057Z,12.90
2018-12-03T13:48:50.526Z,12.90
2018-12-03T13:51:18.172Z,12.90
2018-12-03T13:53:45.641Z,12.80
2018-12-03T13:56:13.196Z,12.90
2018-12-03T13:58:40.769Z,12.80
2018-12-03T14:01:08.221Z,12.90
2018-12-03T14:03:35.696Z,12.80
2018-12-03T14:06:03.296Z,12.80
2018-12-03T14:08:30.920Z,12.80
2018-12-03T14:10:58.441Z,12.70
2018-12-03T14:13:26.115Z,12.80
2018-12-03T14:15:53.618Z,12.80
2018-12-03T14:18:21.080Z,12.80
2018-12-03T14:20:48.732Z,12.70
2018-12-03T14:23:16.249Z,12.70
2018-12-03T14:25:43.657Z,12.70
2018-12-03T14:28:11.320Z,12.70
2018-12-03T14:30:38.888Z,12.60
2018-12-03T14:33:06.448Z,12.70
2018-12-03T14:35:34.017Z,12.60
2018-12-03T14:38:01.472Z,12.60
2018-12-03T14:40:28.984Z,12.60
2018-12-03T14:42:56.509Z,12.70
2018-12-03T14:45:24.066Z,12.70
2018-12-03T14:47:51.597Z,12.70
2018-12-03T14:50:19.088Z,12.80
2018-12-03T14:52:46.557Z,12.80
2018-12-03T14:55:14.112Z,12.80
2018-12-03T14:57:41.559Z,12.80
2018-12-03T15:00:09.241Z,12.80
2018-12-03T15:02:36.812Z,12.80
2018-12-03T15:05:04.560Z,12.80
2018-12-03T15:07:32.107Z,12.80
2018-12-03T15:09:59.524Z,12.80
2018-12-03T15:12:26.956Z,12.80
2018-12-03T15:14:54.529Z,12.80
2018-12-03T15:17:22.056Z,12.70
2018-12-03T15:19:49.552Z,12.70
2018-12-03T15:22:17.118Z,12.70
2018-12-03T15:24:44.747Z,12.70
2018-12-03T15:27:12.236Z,12.60
2018-12-03T15:29:39.699Z,12.60
2018-12-03T15:32:07.168Z,12.60
2018-12-03T15:34:34.629Z,12.50
2018-12-03T15:37:02.083Z,12.50
2018-12-03T15:39:29.520Z,12.50
2018-12-03T15:41:57.107Z,12.50
2018-12-03T15:44:24.567Z,12.50
2018-12-03T15:46:52.033Z,12.50
2018-12-03T15:49:19.500Z,12.40
2018-12-03T15:51:47.061Z,12.40
2018-12-03T15:54:14.525Z,12.50
2018-12-03T15:56:41.980Z,12.50
2018-12-03T15:59:09.514Z,12.50
2018-12-03T16:01:37.008Z,12.50
2018-12-03T16:04:04.443Z,12.50
2018-12-03T16:06:31.878Z,12.40
2018-12-03T16:08:59.393Z,12.40
2018-12-03T16:11:26.841Z,12.40
2018-12-03T16:13:54.317Z,12.40
2018-12-03T16:16:21.880Z,12.40
2018-12-03T16:18:49.345Z,12.40
2018-12-03T16:21:16.893Z,12.30
2018-12-03T16:23:55.246Z,12.40
2018-12-03T16:26:23.036Z,12.30
2018-12-03T16:28:50.544Z,12.30
2018-12-03T16:31:18.012Z,12.30
2018-12-03T16:33:45.444Z,12.30
2018-12-03T16:36:13.033Z,12.30
2018-12-03T16:38:40.489Z,12.30
2018-12-03T16:41:07.935Z,12.30
2018-12-03T16:43:35.429Z,12.30
2018-12-03T16:46:02.989Z,12.30
2018-12-03T16:48:30.448Z,12.30
2018-12-03T16:50:57.892Z,12.30
2018-12-03T16:53:25.372Z,12.30
2018-12-03T16:55:52.936Z,12.30
2018-12-03T16:58:20.412Z,12.30
2018-12-03T17:00:47.961Z,12.40
2018-12-03T17:03:15.494Z,12.40
2018-12-03T17:05:43.085Z,12.40
2018-12-03T17:08:10.640Z,12.40
2018-12-03T17:10:38.106Z,12.40
2018-12-03T17:13:05.663Z,12.40
2018-12-03T17:15:33.202Z,12.40
2018-12-03T17:18:00.696Z,12.40
2018-12-03T17:20:28.364Z,12.40
2018-12-03T17:22:56.024Z,12.40
2018-12-03T17:25:23.709Z,12.40
2018-12-03T17:27:51.180Z,12.40
2018-12-03T17:30:19.029Z,12.40
2018-12-03T17:32:46.481Z,12.40
2018-12-03T17:35:13.981Z,12.40
2018-12-03T17:37:41.516Z,12.40
2018-12-03T17:40:09.072Z,12.40
2018-12-03T17:42:36.569Z,12.40
2018-12-03T17:45:05.748Z,12.40
2018-12-03T17:47:33.197Z,12.40
2018-12-03T17:50:00.835Z,12.50
2018-12-03T17:52:28.343Z,12.40
2018-12-03T17:54:55.893Z,12.40
2018-12-03T17:57:23.426Z,12.40
2018-12-03T17:59:50.840Z,12.50
2018-12-03T18:02:18.284Z,12.50
2018-12-03T18:04:45.744Z,12.50
2018-12-03T18:07:13.200Z,12.50
2018-12-03T18:09:40.664Z,12.50
2018-12-03T18:12:08.224Z,12.50
2018-12-03T18:14:35.692Z,12.50
2018-12-03T18:17:03.320Z,12.50
2018-12-03T18:19:30.819Z,12.50
2018-12-03T18:21:58.388Z,12.40
2018-12-03T18:24:25.948Z,12.50
2018-12-03T18:26:53.512Z,12.50
2018-12-03T18:29:21.066Z,12.50
2018-12-03T18:31:48.536Z,12.40
2018-12-03T18:34:16.063Z,12.50
2018-12-03T18:36:43.557Z,12.50
2018-12-03T18:39:11.020Z,12.50
2018-12-03T18:41:38.565Z,12.50
2018-12-03T18:44:06.100Z,12.50
2018-12-03T18:46:33.616Z,12.50
2018-12-03T18:49:01.285Z,12.50
2018-12-03T18:51:28.743Z,12.50
2018-12-03T18:53:56.300Z,12.50
2018-12-03T18:56:23.860Z,12.60
2018-12-03T18:58:51.532Z,12.60
2018-12-03T19:01:18.992Z,12.60
2018-12-03T19:03:46.461Z,12.60
2018-12-03T19:06:13.931Z,12.60
2018-12-03T19:08:41.445Z,12.60
2018-12-03T19:11:09.233Z,12.60
2018-12-03T19:13:36.813Z,12.60
2018-12-03T19:16:04.376Z,12.60
2018-12-03T19:18:31.816Z,12.60
2018-12-03T19:20:59.366Z,12.60
2018-12-03T19:23:26.863Z,12.50
2018-12-03T19:25:54.429Z,12.60
2018-12-03T19:28:21.983Z,12.60
2018-12-03T19:30:49.464Z,12.60
2018-12-03T19:33:16.921Z,12.60
2018-12-03T19:35:44.456Z,12.60
2018-12-03T19:38:12.056Z,12.60
2018-12-03T19:40:39.535Z,12.50
2018-12-03T19:43:06.970Z,12.50
2018-12-03T19:45:34.425Z,12.60
2018-12-03T19:48:01.893Z,12.50
2018-12-03T19:50:29.456Z,12.50
2018-12-03T19:52:56.940Z,12.50
2018-12-03T19:55:24.646Z,12.50
2018-12-03T19:57:52.336Z,12.50
2018-12-03T20:00:19.805Z,12.40
2018-12-03T20:02:47.285Z,12.40
2018-12-03T20:05:17.769Z,12.40
2018-12-03T20:07:45.387Z,12.40
2018-12-03T20:10:12.927Z,12.30
2018-12-03T20:12:40.457Z,12.30
2018-12-03T20:15:08.005Z,12.30
2018-12-03T20:17:35.469Z,12.40
2018-12-03T20:20:03.596Z,12.30
2018-12-03T20:22:31.156Z,12.30
2018-12-03T20:24:58.626Z,12.30
2018-12-03T20:27:26.245Z,12.30
2018-12-03T20:29:53.749Z,12.30
2018-12-03T20:32:21.249Z,12.30
2018-12-03T20:34:48.765Z,12.30
2018-12-03T20:37:19.709Z,12.30
2018-12-03T20:39:51.869Z,12.30
2018-12-03T20:42:20.262Z,12.30
2018-12-03T20:44:48.260Z,12.30
2018-12-03T20:47:15.816Z,12.30
2018-12-03T20:49:43.367Z,12.30
2018-12-03T20:52:11.048Z,12.30
2018-12-03T20:54:38.502Z,12.30
2018-12-03T20:57:05.977Z,12.30
2018-12-03T20:59:33.441Z,12.30
2018-12-03T21:02:00.976Z,12.30
2018-12-03T21:04:28.576Z,12.30
2018-12-03T21:06:56.100Z,12.30
2018-12-03T21:09:23.738Z,12.30
2018-12-03T21:11:51.160Z,12.30
2018-12-03T21:14:20.218Z,12.30
2018-12-03T21:16:47.896Z,12.30
2018-12-03T21:19:15.431Z,12.30
2018-12-03T21:21:42.928Z,12.30
2018-12-03T21:24:10.362Z,12.20
2018-12-03T21:26:37.860Z,12.20
2018-12-03T21:29:05.438Z,12.20
2018-12-03T21:31:32.976Z,12.10
2018-12-03T21:34:00.421Z,12.10
2018-12-03T21:36:28.000Z,12.10
2018-12-03T21:38:55.476Z,12.10
2018-12-03T21:41:22.909Z,12.10
2018-12-03T21:43:50.385Z,12.10
2018-12-03T21:46:17.863Z,12.10
2018-12-03T21:48:45.407Z,12.10
2018-12-03T21:51:12.938Z,12.10
2018-12-03T21:53:40.365Z,12.10
2018-12-03T21:56:07.887Z,12.10
2018-12-03T21:58:35.330Z,12.00
2018-12-03T22:01:02.889Z,12.00
2018-12-03T22:03:30.420Z,12.00
2018-12-03T22:05:57.944Z,12.00
2018-12-03T22:08:25.508Z,12.00
2018-12-03T22:10:53.076Z,12.00
2018-12-03T22:13:20.632Z,12.00
2018-12-03T22:15:48.109Z,12.00
2018-12-03T22:18:15.669Z,12.00
2018-12-03T22:20:43.228Z,12.00
2018-12-03T22:23:10.661Z,12.00
2018-12-03T22:25:38.117Z,12.00
2018-12-03T22:28:05.656Z,11.90
2018-12-03T22:30:33.172Z,11.90
2018-12-03T22:33:00.737Z,11.90
2018-12-03T22:35:28.208Z,11.90
2018-12-03T22:37:55.692Z,11.90
2018-12-03T22:40:23.189Z,11.80
2018-12-03T22:42:50.684Z,11.90
2018-12-03T22:45:18.149Z,11.80
2018-12-03T22:47:45.712Z,11.80
2018-12-03T22:50:13.176Z,11.80
2018-12-03T22:52:40.636Z,11.80
2018-12-03T22:55:08.200Z,11.80
2018-12-03T22:57:35.652Z,11.70
2018-12-03T23:00:03.628Z,11.60
2018-12-03T23:02:31.091Z,11.60
2018-12-03T23:04:58.648Z,11.60
2018-12-03T23:07:26.211Z,11.60
2018-12-03T23:09:53.674Z,11.50
2018-12-03T23:12:21.145Z,11.40
2018-12-03T23:14:48.708Z,11.20
2018-12-03T23:17:16.164Z,11.10
2018-12-03T23:19:43.728Z,10.90
2018-12-03T23:22:11.363Z,10.80
2018-12-03T23:24:38.856Z,10.60
2018-12-03T23:27:06.324Z,10.40
2018-12-03T23:29:33.828Z,10.40
2018-12-03T23:32:01.264Z,10.30
2018-12-03T23:34:28.704Z,10.30
2018-12-03T23:36:56.166Z,10.20
2018-12-03T23:39:23.666Z,10.10
2018-12-03T23:41:51.117Z,10.10
2018-12-03T23:44:18.556Z,10.00
2018-12-03T23:46:46.028Z,10.00
2018-12-03T23:49:13.456Z,10.00
2018-12-03T23:51:40.927Z,10.00
2018-12-03T23:54:08.385Z,9.90
2018-12-03T23:56:35.827Z,9.90
2018-12-03T23:59:03.317Z,9.90
